createdAt,value
2017-08-11T00:00:25.021Z,6.63
2017-08-11T00:02:50.797Z,8.43
2017-08-11T00:05:16.617Z,2.27
2017-08-11T00:07:42.381Z,4.53
2017-08-11T00:10:08.180Z,3.97
2017-08-11T00:12:34.072Z,2.53
2017-08-11T00:14:59.867Z,7.40
2017-08-11T00:17:25.631Z,4.10
2017-08-11T00:19:51.494Z,3.20
2017-08-11T00:22:17.239Z,2.27
2017-08-11T00:24:43.144Z,2.37
2017-08-11T00:27:08.934Z,4.23
2017-08-11T00:29:34.708Z,4.20
2017-08-11T00:32:04.620Z,4.20
2017-08-11T00:34:30.548Z,3.83
2017-08-11T00:36:56.317Z,3.33
2017-08-11T00:39:22.074Z,2.17
2017-08-11T00:41:47.935Z,3.10
2017-08-11T00:44:13.781Z,7.80
2017-08-11T00:46:39.535Z,14.60
2017-08-11T00:49:05.359Z,2.47
2017-08-11T00:51:31.198Z,6.63
2017-08-11T00:53:57.010Z,2.83
2017-08-11T00:56:22.799Z,13.00
2017-08-11T00:58:48.618Z,2.90
2017-08-11T01:01:14.496Z,8.93
2017-08-11T01:03:40.241Z,4.93
2017-08-11T01:06:06.103Z,3.70
2017-08-11T01:08:31.993Z,2.93
2017-08-11T01:10:57.760Z,3.20
2017-08-11T01:13:23.537Z,3.93
2017-08-11T01:15:49.369Z,3.83
2017-08-11T01:18:15.252Z,3.00
2017-08-11T01:20:40.995Z,7.60
2017-08-11T01:23:06.856Z,6.47
2017-08-11T01:25:32.614Z,2.47
2017-08-11T01:27:58.441Z,4.43
2017-08-11T01:30:24.285Z,1.33
2017-08-11T01:32:50.093Z,3.40
2017-08-11T01:35:15.966Z,1.87
2017-08-11T01:37:41.714Z,4.30
2017-08-11T01:40:07.606Z,3.70
2017-08-11T01:42:33.404Z,1.83
2017-08-11T01:44:59.163Z,1.50
2017-08-11T01:47:25.031Z,1.80
2017-08-11T01:49:50.797Z,2.93
2017-08-11T01:52:16.612Z,5.03
2017-08-11T01:54:42.471Z,7.00
2017-08-11T01:57:08.298Z,1.73
2017-08-11T01:59:34.105Z,3.30
2017-08-11T02:01:59.915Z,8.03
2017-08-11T02:04:25.758Z,5.33
2017-08-11T02:06:51.538Z,4.57
2017-08-11T02:09:17.369Z,7.87
2017-08-11T02:11:43.204Z,10.53
2017-08-11T02:14:09.019Z,4.63
2017-08-11T02:16:34.837Z,5.03
2017-08-11T02:19:00.630Z,7.33
2017-08-11T02:21:26.486Z,13.10
2017-08-11T02:23:52.340Z,9.50
2017-08-11T02:26:18.094Z,3.90
2017-08-11T02:28:43.930Z,2.27
2017-08-11T02:31:09.743Z,4.70
2017-08-11T02:33:35.567Z,2.10
2017-08-11T02:36:01.354Z,1.70
2017-08-11T02:38:27.183Z,8.00
2017-08-11T02:40:53.019Z,4.37
2017-08-11T02:43:18.827Z,2.83
2017-08-11T02:45:44.654Z,3.33
2017-08-11T02:48:10.380Z,4.43
2017-08-11T02:50:36.142Z,2.97
2017-08-11T02:53:01.881Z,7.90
2017-08-11T02:55:27.774Z,1.93
2017-08-11T02:57:53.553Z,23.43
2017-08-11T03:00:19.336Z,2.57
2017-08-11T03:02:45.226Z,5.97
2017-08-11T03:05:10.982Z,6.83
2017-08-11T03:07:36.776Z,4.23
2017-08-11T03:10:02.633Z,3.00
2017-08-11T03:12:28.416Z,3.10
2017-08-11T03:14:54.280Z,1.63
2017-08-11T03:17:20.134Z,5.23
2017-08-11T03:19:45.897Z,2.47
2017-08-11T03:22:11.728Z,2.37
2017-08-11T03:24:37.519Z,1.90
2017-08-11T03:27:03.350Z,5.57
2017-08-11T03:29:29.212Z,9.33
2017-08-11T03:31:55.021Z,2.23
2017-08-11T03:34:20.899Z,9.20
2017-08-11T03:36:46.636Z,2.07
2017-08-11T03:39:12.421Z,10.80
2017-08-11T03:41:38.283Z,3.33
2017-08-11T03:44:04.059Z,2.67
2017-08-11T03:46:29.901Z,4.57
2017-08-11T03:48:55.759Z,4.60
2017-08-11T03:51:21.523Z,9.70
2017-08-11T03:53:47.334Z,3.77
2017-08-11T03:56:13.171Z,2.03
2017-08-11T03:58:39.114Z,5.83
2017-08-11T04:01:04.871Z,2.27
2017-08-11T04:03:30.601Z,7.80
2017-08-11T04:05:56.469Z,1.50
2017-08-11T04:08:22.257Z,6.20
2017-08-11T04:10:48.190Z,1.93
2017-08-11T04:13:13.892Z,2.90
2017-08-11T04:15:39.769Z,3.10
2017-08-11T04:18:05.548Z,4.10
2017-08-11T04:20:31.359Z,10.63
2017-08-11T04:22:57.154Z,5.23
2017-08-11T04:25:23.049Z,4.80
2017-08-11T04:27:48.920Z,1.93
2017-08-11T04:30:14.692Z,5.40
2017-08-11T04:32:40.492Z,1.57
2017-08-11T04:35:06.319Z,3.60
2017-08-11T04:37:32.057Z,3.00
2017-08-11T04:39:57.990Z,1.83
2017-08-11T04:42:23.760Z,2.90
2017-08-11T04:44:49.624Z,3.10
2017-08-11T04:47:15.421Z,2.37
2017-08-11T04:49:41.249Z,5.93
2017-08-11T04:52:07.021Z,2.53
2017-08-11T04:54:32.888Z,3.40
2017-08-11T04:56:58.680Z,3.13
2017-08-11T04:59:24.452Z,2.40
2017-08-11T05:01:50.316Z,6.40
2017-08-11T05:04:16.083Z,2.20
2017-08-11T05:06:41.916Z,2.37
2017-08-11T05:09:07.632Z,3.90
2017-08-11T05:11:33.341Z,2.13
2017-08-11T05:13:59.232Z,6.13
2017-08-11T05:16:24.964Z,7.00
2017-08-11T05:18:50.800Z,5.10
2017-08-11T05:21:16.578Z,1.93
2017-08-11T05:23:42.405Z,2.10
2017-08-11T05:26:08.152Z,3.80
2017-08-11T05:28:33.913Z,4.30
2017-08-11T05:30:59.729Z,2.17
2017-08-11T05:33:25.492Z,1.27
2017-08-11T05:35:51.276Z,6.13
2017-08-11T05:38:17.000Z,1.73
2017-08-11T05:40:42.751Z,2.80
2017-08-11T05:43:08.549Z,3.00
2017-08-11T05:45:34.359Z,1.87
2017-08-11T05:48:00.228Z,6.60
2017-08-11T05:50:26.100Z,1.80
2017-08-11T05:52:51.817Z,6.30
2017-08-11T05:55:17.664Z,5.20
2017-08-11T05:57:43.529Z,3.27
2017-08-11T06:00:09.280Z,4.47
2017-08-11T06:02:35.088Z,3.03
2017-08-11T06:05:00.911Z,3.23
2017-08-11T06:07:26.746Z,4.50
2017-08-11T06:09:52.543Z,3.87
2017-08-11T06:12:18.388Z,3.03
2017-08-11T06:14:44.272Z,4.70
2017-08-11T06:17:10.069Z,4.70
2017-08-11T06:19:35.907Z,2.40
2017-08-11T06:22:01.645Z,2.47
2017-08-11T06:24:27.511Z,1.70
2017-08-11T06:26:53.234Z,7.03
2017-08-11T06:29:18.940Z,11.03
2017-08-11T06:31:44.731Z,2.13
2017-08-11T06:34:10.600Z,7.70
2017-08-11T06:36:36.440Z,2.90
2017-08-11T06:39:02.256Z,6.40
2017-08-11T06:41:28.039Z,4.87
2017-08-11T06:43:53.885Z,3.37
2017-08-11T06:46:19.616Z,10.50
2017-08-11T06:48:45.544Z,3.20
2017-08-11T06:51:11.328Z,3.83
2017-08-11T06:53:37.076Z,4.37
2017-08-11T06:56:03.004Z,4.17
2017-08-11T06:58:28.724Z,5.70
2017-08-11T07:00:54.424Z,4.50
2017-08-11T07:03:20.257Z,3.43
2017-08-11T07:05:46.004Z,5.33
2017-08-11T07:08:11.775Z,5.60
2017-08-11T07:10:37.600Z,7.20
2017-08-11T07:13:03.461Z,4.80
2017-08-11T07:15:29.312Z,6.93
2017-08-11T07:17:55.102Z,5.30
2017-08-11T07:20:20.884Z,8.17
2017-08-11T07:22:46.688Z,6.00
2017-08-11T07:25:12.552Z,5.17
2017-08-11T07:27:38.336Z,7.13
2017-08-11T07:30:04.146Z,3.97
2017-08-11T07:32:30.050Z,4.03
2017-08-11T07:34:55.792Z,5.83
2017-08-11T07:37:21.682Z,3.73
2017-08-11T07:39:47.424Z,4.67
2017-08-11T07:42:13.264Z,4.97
2017-08-11T07:44:39.130Z,4.00
2017-08-11T07:47:05.003Z,6.83
2017-08-11T07:49:30.724Z,6.37
2017-08-11T07:51:56.581Z,5.90
2017-08-11T07:54:22.353Z,5.27
2017-08-11T07:56:48.177Z,3.67
2017-08-11T07:59:13.979Z,4.67
2017-08-11T08:01:39.729Z,4.30
2017-08-11T08:04:05.435Z,5.67
2017-08-11T08:06:31.295Z,6.93
2017-08-11T08:08:58.157Z,5.43
2017-08-11T08:11:24.034Z,5.00
2017-08-11T08:13:49.773Z,4.03
2017-08-11T08:16:15.603Z,5.00
2017-08-11T08:18:41.426Z,5.53
2017-08-11T08:21:07.198Z,7.47
2017-08-11T08:23:32.917Z,5.13
2017-08-11T08:25:58.655Z,3.30
2017-08-11T08:28:24.480Z,4.23
2017-08-11T08:30:50.295Z,5.30
2017-08-11T08:33:16.150Z,6.30
2017-08-11T08:35:41.889Z,6.83
2017-08-11T08:38:07.694Z,6.20
2017-08-11T08:40:33.654Z,5.30
2017-08-11T08:42:59.416Z,8.03
2017-08-11T08:45:25.146Z,10.20
2017-08-11T08:47:50.957Z,11.67
2017-08-11T08:50:16.881Z,7.27
2017-08-11T08:52:42.600Z,11.10
2017-08-11T08:55:08.489Z,11.10
2017-08-11T08:57:34.249Z,14.03
2017-08-11T09:00:00.052Z,15.93
2017-08-11T09:02:25.945Z,16.30
2017-08-11T09:04:51.680Z,14.17
2017-08-11T09:07:17.501Z,13.37
2017-08-11T09:09:43.422Z,14.87
2017-08-11T09:12:09.164Z,12.03
2017-08-11T09:14:34.985Z,13.53
2017-08-11T09:17:00.776Z,14.33
2017-08-11T09:19:26.625Z,11.37
2017-08-11T09:21:52.406Z,12.50
2017-08-11T09:24:30.650Z,16.10
2017-08-11T09:27:08.664Z,17.50
2017-08-11T09:29:46.521Z,16.23
2017-08-11T09:32:24.714Z,16.40
2017-08-11T09:35:02.695Z,18.60
2017-08-11T09:37:28.415Z,20.47
2017-08-11T09:39:54.253Z,20.50
2017-08-11T09:42:20.004Z,19.97
2017-08-11T09:44:45.836Z,18.33
2017-08-11T09:47:11.705Z,18.37
2017-08-11T09:49:37.481Z,19.87
2017-08-11T09:52:03.275Z,20.03
2017-08-11T09:54:29.153Z,23.63
2017-08-11T09:56:54.911Z,19.80
2017-08-11T09:59:20.744Z,17.00
2017-08-11T10:01:46.604Z,17.80
2017-08-11T10:04:12.393Z,17.97
2017-08-11T10:06:38.171Z,16.27
2017-08-11T10:09:04.064Z,17.30
2017-08-11T10:11:29.824Z,20.17
2017-08-11T10:13:55.633Z,23.07
2017-08-11T10:16:21.516Z,18.90
2017-08-11T10:18:47.266Z,27.10
2017-08-11T10:21:13.164Z,24.23
2017-08-11T10:23:38.948Z,26.77
2017-08-11T10:26:04.792Z,25.93
2017-08-11T10:28:30.624Z,24.23
2017-08-11T10:30:56.389Z,26.07
2017-08-11T10:33:22.167Z,25.10
2017-08-11T10:35:48.108Z,24.30
2017-08-11T10:38:13.849Z,28.80
2017-08-11T10:40:39.742Z,23.87
2017-08-11T10:43:05.483Z,27.27
2017-08-11T10:45:31.348Z,27.57
2017-08-11T10:47:57.194Z,33.67
2017-08-11T10:50:23.000Z,33.03
2017-08-11T10:52:48.746Z,32.50
2017-08-11T10:55:14.644Z,39.03
2017-08-11T10:57:40.497Z,39.97
2017-08-11T11:00:06.210Z,37.73
2017-08-11T11:02:31.998Z,38.20
2017-08-11T11:04:57.861Z,34.80
2017-08-11T11:07:23.672Z,39.73
2017-08-11T11:09:49.520Z,34.53
2017-08-11T11:12:15.325Z,33.37
2017-08-11T11:14:41.156Z,27.83
2017-08-11T11:17:06.917Z,29.63
2017-08-11T11:19:32.745Z,31.00
2017-08-11T11:21:58.577Z,34.17
2017-08-11T11:24:24.449Z,33.00
2017-08-11T11:26:50.192Z,32.47
2017-08-11T11:29:16.037Z,34.33
2017-08-11T11:31:41.830Z,36.13
2017-08-11T11:34:07.761Z,38.30
2017-08-11T11:36:33.496Z,56.53
2017-08-11T11:38:59.350Z,37.90
2017-08-11T11:41:25.208Z,34.00
2017-08-11T11:43:50.994Z,34.13
2017-08-11T11:46:16.808Z,32.20
2017-08-11T11:48:42.635Z,32.40
2017-08-11T11:51:08.448Z,28.77
2017-08-11T11:53:34.288Z,26.17
2017-08-11T11:56:00.094Z,33.17
2017-08-11T11:58:25.913Z,33.40
2017-08-11T12:00:51.738Z,36.30
2017-08-11T12:03:17.540Z,28.50
2017-08-11T12:05:43.360Z,24.17
2017-08-11T12:08:09.110Z,26.57
2017-08-11T12:10:34.925Z,30.10
2017-08-11T12:13:00.745Z,26.90
2017-08-11T12:15:26.654Z,32.10
2017-08-11T12:17:52.385Z,28.10
2017-08-11T12:20:18.194Z,30.30
2017-08-11T12:22:44.129Z,27.83
2017-08-11T12:25:09.868Z,29.53
2017-08-11T12:27:35.740Z,24.90
2017-08-11T12:30:01.584Z,27.73
2017-08-11T12:32:27.380Z,26.33
2017-08-11T12:34:53.111Z,32.03
2017-08-11T12:37:18.964Z,37.60
2017-08-11T12:39:44.816Z,30.97
2017-08-11T12:42:10.644Z,28.50
2017-08-11T12:44:36.417Z,35.77
2017-08-11T12:47:02.230Z,26.20
2017-08-11T12:49:28.089Z,27.83
2017-08-11T12:51:53.937Z,28.17
2017-08-11T12:54:19.758Z,30.53
2017-08-11T12:56:45.569Z,30.40
2017-08-11T12:59:11.288Z,22.53
2017-08-11T13:01:37.125Z,26.67
2017-08-11T13:04:03.039Z,25.10
2017-08-11T13:06:28.813Z,27.57
2017-08-11T13:08:54.692Z,30.47
2017-08-11T13:11:20.466Z,30.40
2017-08-11T13:13:46.201Z,24.53
2017-08-11T13:16:12.049Z,24.63
2017-08-11T13:18:37.939Z,23.20
2017-08-11T13:21:03.732Z,23.57
2017-08-11T13:23:29.551Z,26.17
2017-08-11T13:25:55.331Z,27.83
2017-08-11T13:28:21.113Z,27.87
2017-08-11T13:30:47.009Z,27.83
2017-08-11T13:33:12.833Z,34.37
2017-08-11T13:35:38.668Z,25.10
2017-08-11T13:38:04.458Z,21.87
2017-08-11T13:40:30.282Z,26.50
2017-08-11T13:42:56.051Z,21.93
2017-08-11T13:45:21.917Z,20.57
2017-08-11T13:47:47.767Z,24.10
2017-08-11T13:50:13.476Z,33.13
2017-08-11T13:52:39.304Z,75.73
2017-08-11T13:55:05.216Z,46.60
2017-08-11T13:57:30.960Z,30.80
2017-08-11T13:59:56.763Z,31.73
2017-08-11T14:02:22.625Z,32.90
2017-08-11T14:04:48.419Z,31.63
2017-08-11T14:07:14.234Z,29.50
2017-08-11T14:09:40.133Z,32.43
2017-08-11T14:12:05.862Z,25.20
2017-08-11T14:14:31.693Z,31.77
2017-08-11T14:16:57.489Z,29.73
2017-08-11T14:19:23.420Z,37.10
2017-08-11T14:21:49.193Z,34.63
2017-08-11T14:24:21.053Z,35.47
2017-08-11T14:26:46.989Z,29.65
2017-08-11T14:29:12.785Z,44.33
2017-08-11T14:31:38.663Z,40.80
2017-08-11T14:34:04.440Z,37.00
2017-08-11T14:36:30.195Z,39.37
2017-08-11T14:38:56.037Z,44.03
2017-08-11T14:41:21.852Z,42.63
2017-08-11T14:43:47.710Z,46.57
2017-08-11T14:46:13.575Z,50.97
2017-08-11T14:48:39.339Z,47.13
2017-08-11T14:51:05.124Z,48.67
2017-08-11T14:53:30.929Z,50.33
2017-08-11T14:55:56.805Z,53.73
2017-08-11T14:58:22.646Z,48.37
2017-08-11T15:00:48.365Z,43.17
2017-08-11T15:03:14.183Z,50.17
2017-08-11T15:05:40.028Z,44.07
2017-08-11T15:08:05.984Z,52.43
2017-08-11T15:10:31.728Z,47.20
2017-08-11T15:12:57.499Z,51.27
2017-08-11T15:15:23.320Z,63.93
2017-08-11T15:17:49.121Z,42.43
2017-08-11T15:20:14.908Z,44.40
2017-08-11T15:22:40.809Z,48.83
2017-08-11T15:25:06.632Z,45.27
2017-08-11T15:27:32.364Z,53.17
2017-08-11T15:29:58.288Z,49.70
2017-08-11T15:32:24.040Z,43.70
2017-08-11T15:34:49.902Z,51.50
2017-08-11T15:37:15.666Z,48.90
2017-08-11T15:39:41.449Z,44.73
2017-08-11T15:42:07.309Z,47.27
2017-08-11T15:44:33.093Z,46.13
2017-08-11T15:46:59.911Z,42.90
2017-08-11T15:49:25.823Z,37.90
2017-08-11T15:51:51.669Z,45.27
2017-08-11T15:54:17.509Z,45.80
2017-08-11T15:56:43.274Z,46.70
2017-08-11T15:59:09.024Z,40.53
2017-08-11T16:01:34.881Z,42.57
2017-08-11T16:04:00.673Z,35.73
2017-08-11T16:06:26.584Z,40.13
2017-08-11T16:08:52.313Z,37.17
2017-08-11T16:11:18.192Z,41.50
2017-08-11T16:13:44.024Z,42.87
2017-08-11T16:16:09.833Z,46.93
2017-08-11T16:18:35.580Z,43.00
2017-08-11T16:21:01.434Z,41.87
2017-08-11T16:23:27.212Z,43.67
2017-08-11T16:25:53.033Z,43.27
2017-08-11T16:28:18.915Z,47.50
2017-08-11T16:30:44.780Z,36.20
2017-08-11T16:33:10.495Z,51.20
2017-08-11T16:35:36.449Z,43.30
2017-08-11T16:38:02.171Z,38.17
2017-08-11T16:40:28.004Z,36.00
2017-08-11T16:42:53.768Z,40.00
2017-08-11T16:45:19.616Z,37.70
2017-08-11T16:47:45.460Z,41.93
2017-08-11T16:50:11.209Z,35.60
2017-08-11T16:52:37.032Z,37.87
2017-08-11T16:55:02.852Z,37.47
2017-08-11T16:57:28.669Z,39.90
2017-08-11T16:59:54.516Z,42.73
2017-08-11T17:02:20.349Z,41.70
2017-08-11T17:04:46.189Z,42.67
2017-08-11T17:07:11.986Z,42.43
2017-08-11T17:09:37.784Z,30.30
2017-08-11T17:12:03.583Z,27.23
2017-08-11T17:14:29.429Z,27.47
2017-08-11T17:16:55.224Z,26.33
2017-08-11T17:19:21.076Z,27.73
2017-08-11T17:21:46.891Z,28.53
2017-08-11T17:24:12.685Z,31.40
2017-08-11T17:26:38.591Z,31.83
2017-08-11T17:29:04.315Z,32.87
2017-08-11T17:31:30.162Z,29.20
2017-08-11T17:33:56.029Z,32.63
2017-08-11T17:36:21.785Z,27.23
2017-08-11T17:38:47.700Z,25.13
2017-08-11T17:41:13.413Z,25.67
2017-08-11T17:43:39.289Z,28.63
2017-08-11T17:46:05.080Z,31.40
2017-08-11T17:48:30.864Z,30.70
2017-08-11T17:50:56.690Z,22.37
2017-08-11T17:53:22.509Z,25.20
2017-08-11T17:55:48.324Z,25.80
2017-08-11T17:58:14.152Z,27.47
2017-08-11T18:00:40.039Z,24.07
2017-08-11T18:03:05.833Z,21.90
2017-08-11T18:05:31.663Z,22.40
2017-08-11T18:07:57.434Z,20.83
2017-08-11T18:10:23.277Z,22.80
2017-08-11T18:12:49.075Z,24.20
2017-08-11T18:15:14.967Z,30.33
2017-08-11T18:17:40.679Z,27.27
2017-08-11T18:20:06.591Z,33.47
2017-08-11T18:22:32.381Z,28.50
2017-08-11T18:24:58.129Z,34.57
2017-08-11T18:27:24.033Z,34.57
2017-08-11T18:29:49.787Z,36.50
2017-08-11T18:32:15.631Z,47.93
2017-08-11T18:34:41.464Z,40.23
2017-08-11T18:37:07.258Z,37.60
2017-08-11T18:39:33.178Z,39.80
2017-08-11T18:41:58.938Z,44.50
2017-08-11T18:44:24.689Z,45.07
2017-08-11T18:46:50.643Z,40.80
2017-08-11T18:49:16.394Z,41.17
2017-08-11T18:51:42.143Z,41.57
2017-08-11T18:54:07.972Z,42.27
2017-08-11T18:56:33.771Z,47.63
2017-08-11T18:58:59.615Z,41.60
2017-08-11T19:01:25.436Z,51.57
2017-08-11T19:03:51.898Z,43.10
2017-08-11T19:06:17.673Z,42.25
2017-08-11T19:08:43.498Z,50.60
2017-08-11T19:11:09.428Z,42.63
2017-08-11T19:13:35.167Z,46.57
2017-08-11T19:16:00.975Z,44.57
2017-08-11T19:18:26.836Z,49.73
2017-08-11T19:20:52.595Z,53.97
2017-08-11T19:23:18.423Z,55.47
2017-08-11T19:25:44.275Z,52.90
2017-08-11T19:28:10.137Z,46.27
2017-08-11T19:30:35.888Z,53.90
2017-08-11T19:33:01.743Z,54.83
2017-08-11T19:35:27.584Z,51.50
2017-08-11T19:37:53.324Z,53.03
2017-08-11T19:40:19.166Z,59.23
2017-08-11T19:42:45.047Z,47.20
2017-08-11T19:45:11.606Z,60.03
2017-08-11T19:47:37.464Z,59.22
2017-08-11T19:50:03.255Z,58.03
2017-08-11T19:52:29.069Z,54.47
2017-08-11T19:54:54.915Z,62.17
2017-08-11T19:57:20.691Z,57.57
2017-08-11T19:59:46.616Z,55.70
2017-08-11T20:02:12.381Z,49.67
2017-08-11T20:04:38.201Z,55.50
2017-08-11T20:07:04.042Z,60.03
2017-08-11T20:09:29.815Z,44.43
2017-08-11T20:11:56.480Z,43.13
2017-08-11T20:14:22.230Z,43.07
2017-08-11T20:16:48.083Z,32.30
2017-08-11T20:19:13.923Z,37.57
2017-08-11T20:21:39.716Z,30.90
2017-08-11T20:24:05.595Z,39.97
2017-08-11T20:26:31.489Z,37.87
2017-08-11T20:28:57.433Z,40.13
2017-08-11T20:31:23.182Z,41.30
2017-08-11T20:33:49.322Z,46.70
2017-08-11T20:36:15.050Z,43.33
2017-08-11T20:38:40.846Z,32.93
2017-08-11T20:41:06.771Z,36.17
2017-08-11T20:43:32.511Z,37.60
2017-08-11T20:45:58.317Z,37.93
2017-08-11T20:48:24.117Z,44.63
2017-08-11T20:50:49.937Z,44.07
2017-08-11T20:53:15.765Z,40.47
2017-08-11T20:55:41.574Z,45.40
2017-08-11T20:58:07.404Z,48.23
2017-08-11T21:00:33.230Z,39.57
2017-08-11T21:02:59.083Z,36.57
2017-08-11T21:05:24.862Z,38.17
2017-08-11T21:07:50.715Z,35.97
2017-08-11T21:10:16.485Z,33.57
2017-08-11T21:12:42.303Z,32.40
2017-08-11T21:15:08.164Z,80.37
2017-08-11T21:17:33.933Z,65.13
2017-08-11T21:19:59.765Z,35.10
2017-08-11T21:22:25.616Z,31.20
2017-08-11T21:24:51.385Z,30.03
2017-08-11T21:27:17.212Z,31.40
2017-08-11T21:29:43.122Z,29.07
2017-08-11T21:32:08.931Z,36.93
2017-08-11T21:34:34.683Z,29.60
2017-08-11T21:37:00.467Z,28.33
2017-08-11T21:39:26.334Z,31.17
2017-08-11T21:41:52.106Z,26.90
2017-08-11T21:44:17.948Z,30.47
2017-08-11T21:46:43.850Z,29.60
2017-08-11T21:49:09.643Z,32.23
2017-08-11T21:51:35.421Z,26.20
2017-08-11T21:54:01.215Z,27.43
2017-08-11T21:56:27.014Z,24.43
2017-08-11T21:58:52.849Z,24.57
2017-08-11T22:01:18.739Z,28.10
2017-08-11T22:03:44.520Z,36.90
2017-08-11T22:06:10.362Z,26.63
2017-08-11T22:08:36.106Z,26.13
2017-08-11T22:11:01.989Z,28.50
2017-08-11T22:13:27.760Z,29.43
2017-08-11T22:15:53.562Z,30.20
2017-08-11T22:18:19.405Z,26.73
2017-08-11T22:20:45.227Z,25.73
2017-08-11T22:23:11.058Z,31.30
2017-08-11T22:25:36.887Z,26.17
2017-08-11T22:28:02.673Z,24.40
2017-08-11T22:30:28.482Z,28.30
2017-08-11T22:32:54.398Z,30.90
2017-08-11T22:35:20.143Z,27.27
2017-08-11T22:37:45.928Z,25.30
2017-08-11T22:40:11.861Z,25.90
2017-08-11T22:42:37.610Z,29.60
2017-08-11T22:45:03.466Z,24.10
2017-08-11T22:47:29.224Z,34.93
2017-08-11T22:49:55.065Z,23.77
2017-08-11T22:52:20.915Z,31.40
2017-08-11T22:54:46.673Z,27.23
2017-08-11T22:57:12.504Z,28.67
2017-08-11T22:59:38.357Z,31.00
2017-08-11T23:02:04.131Z,38.37
2017-08-11T23:04:29.954Z,23.80
2017-08-11T23:06:55.903Z,28.57
2017-08-11T23:09:21.658Z,32.73
2017-08-11T23:11:47.469Z,25.17
2017-08-11T23:14:13.211Z,31.30
2017-08-11T23:16:39.666Z,29.90
2017-08-11T23:19:05.550Z,31.50
2017-08-11T23:21:31.321Z,29.70
2017-08-11T23:23:57.107Z,26.80
2017-08-11T23:26:22.975Z,24.90
2017-08-11T23:28:48.747Z,28.23
2017-08-11T23:31:14.559Z,30.43
2017-08-11T23:33:40.401Z,31.03
2017-08-11T23:36:06.191Z,22.40
2017-08-11T23:38:32.048Z,28.07
2017-08-11T23:40:57.839Z,25.97
2017-08-11T23:43:23.680Z,25.73
2017-08-11T23:45:49.535Z,25.73
2017-08-11T23:48:15.299Z,35.07
2017-08-11T23:50:41.128Z,24.60
2017-08-11T23:53:06.949Z,23.80
2017-08-11T23:55:32.753Z,30.73
2017-08-11T23:57:58.571Z,26.57
